sensor_id;sensor_type;location;lat;lon;timestamp;P1;durP1;ratioP1;P2;durP2;ratioP2
7501;SDS011;3792;47.740;7.606;2023-03-11T00:01:17;2.80;;;2.60;;
7501;SDS011;3792;47.740;7.606;2023-03-11T00:03:44;5.10;;;2.50;;
7501;SDS011;3792;47.740;7.606;2023-03-11T00:06:11;3.10;;;2.87;;
7501;SDS011;3792;47.740;7.606;2023-03-11T00:08:38;2.63;;;2.30;;
7501;SDS011;3792;47.740;7.606;2023-03-11T00:11:06;2.90;;;2.43;;
7501;SDS011;3792;47.740;7.606;2023-03-11T00:13:33;3.50;;;2.70;;
7501;SDS011;3792;47.740;7.606;2023-03-11T00:16:02;4.03;;;2.40;;
7501;SDS011;3792;47.740;7.606;2023-03-11T00:18:29;3.13;;;2.63;;
7501;SDS011;3792;47.740;7.606;2023-03-11T00:20:57;3.67;;;2.30;;
7501;SDS011;3792;47.740;7.606;2023-03-11T00:23:25;4.20;;;2.30;;
7501;SDS011;3792;47.740;7.606;2023-03-11T00:25:53;2.60;;;2.40;;
7501;SDS011;3792;47.740;7.606;2023-03-11T00:28:21;2.37;;;2.20;;
7501;SDS011;3792;47.740;7.606;2023-03-11T00:30:50;2.80;;;2.57;;
7501;SDS011;3792;47.740;7.606;2023-03-11T00:33:17;4.53;;;2.50;;
7501;SDS011;3792;47.740;7.606;2023-03-11T00:35:44;3.00;;;2.73;;
7501;SDS011;3792;47.740;7.606;2023-03-11T00:38:12;2.50;;;2.30;;
7501;SDS011;3792;47.740;7.606;2023-03-11T00:40:41;3.03;;;2.30;;
7501;SDS011;3792;47.740;7.606;2023-03-11T00:43:09;2.80;;;2.60;;
7501;SDS011;3792;47.740;7.606;2023-03-11T00:45:38;3.00;;;2.40;;
7501;SDS011;3792;47.740;7.606;2023-03-11T00:48:05;2.83;;;2.63;;
7501;SDS011;3792;47.740;7.606;2023-03-11T00:50:34;4.77;;;2.77;;
7501;SDS011;3792;47.740;7.606;2023-03-11T00:53:02;3.67;;;2.30;;
7501;SDS011;3792;47.740;7.606;2023-03-11T00:55:30;3.27;;;2.57;;
7501;SDS011;3792;47.740;7.606;2023-03-11T00:57:59;3.17;;;2.53;;
7501;SDS011;3792;47.740;7.606;2023-03-11T01:00:28;2.40;;;2.20;;
7501;SDS011;3792;47.740;7.606;2023-03-11T01:02:58;2.83;;;2.50;;
7501;SDS011;3792;47.740;7.606;2023-03-11T01:05:26;2.40;;;2.30;;
7501;SDS011;3792;47.740;7.606;2023-03-11T01:07:54;2.73;;;2.40;;
7501;SDS011;3792;47.740;7.606;2023-03-11T01:10:21;2.67;;;2.47;;
7501;SDS011;3792;47.740;7.606;2023-03-11T01:12:48;2.60;;;2.40;;
7501;SDS011;3792;47.740;7.606;2023-03-11T01:15:17;4.43;;;2.07;;
7501;SDS011;3792;47.740;7.606;2023-03-11T01:17:46;2.17;;;2.00;;
7501;SDS011;3792;47.740;7.606;2023-03-11T01:20:15;2.63;;;2.40;;
7501;SDS011;3792;47.740;7.606;2023-03-11T01:22:43;3.53;;;2.67;;
7501;SDS011;3792;47.740;7.606;2023-03-11T01:25:11;2.60;;;2.20;;
7501;SDS011;3792;47.740;7.606;2023-03-11T01:27:40;2.03;;;1.83;;
7501;SDS011;3792;47.740;7.606;2023-03-11T01:30:08;1.70;;;1.60;;
7501;SDS011;3792;47.740;7.606;2023-03-11T01:32:38;2.23;;;1.80;;
7501;SDS011;3792;47.740;7.606;2023-03-11T01:35:06;1.63;;;1.53;;
7501;SDS011;3792;47.740;7.606;2023-03-11T01:37:34;2.63;;;1.60;;
7501;SDS011;3792;47.740;7.606;2023-03-11T01:40:02;1.83;;;1.73;;
7501;SDS011;3792;47.740;7.606;2023-03-11T01:42:29;3.10;;;2.30;;
7501;SDS011;3792;47.740;7.606;2023-03-11T01:44:56;2.47;;;2.27;;
7501;SDS011;3792;47.740;7.606;2023-03-11T01:47:34;2.13;;;1.93;;
7501;SDS011;3792;47.740;7.606;2023-03-11T01:50:04;3.20;;;2.07;;
7501;SDS011;3792;47.740;7.606;2023-03-11T01:52:38;4.10;;;2.97;;
7501;SDS011;3792;47.740;7.606;2023-03-11T01:55:08;2.27;;;2.07;;
7501;SDS011;3792;47.740;7.606;2023-03-11T01:57:37;2.27;;;2.07;;
7501;SDS011;3792;47.740;7.606;2023-03-11T02:00:07;2.17;;;2.00;;
7501;SDS011;3792;47.740;7.606;2023-03-11T02:02:40;2.30;;;2.17;;
7501;SDS011;3792;47.740;7.606;2023-03-11T02:05:10;2.63;;;2.37;;
7501;SDS011;3792;47.740;7.606;2023-03-11T02:07:39;3.03;;;2.17;;
7501;SDS011;3792;47.740;7.606;2023-03-11T02:10:07;2.87;;;2.53;;
7501;SDS011;3792;47.740;7.606;2023-03-11T02:12:37;2.47;;;2.20;;
7501;SDS011;3792;47.740;7.606;2023-03-11T02:15:05;2.83;;;2.57;;
7501;SDS011;3792;47.740;7.606;2023-03-11T02:17:33;3.03;;;2.77;;
7501;SDS011;3792;47.740;7.606;2023-03-11T02:20:07;3.80;;;2.87;;
7501;SDS011;3792;47.740;7.606;2023-03-11T02:22:46;2.00;;;1.90;;
7501;SDS011;3792;47.740;7.606;2023-03-11T02:25:17;2.70;;;2.17;;
7501;SDS011;3792;47.740;7.606;2023-03-11T02:27:51;2.57;;;2.23;;
7501;SDS011;3792;47.740;7.606;2023-03-11T02:30:21;2.33;;;2.10;;
7501;SDS011;3792;47.740;7.606;2023-03-11T02:32:51;1.60;;;1.50;;
7501;SDS011;3792;47.740;7.606;2023-03-11T02:35:20;1.50;;;1.40;;
7501;SDS011;3792;47.740;7.606;2023-03-11T02:37:49;1.40;;;1.30;;
7501;SDS011;3792;47.740;7.606;2023-03-11T02:43:16;1.20;;;1.13;;
7501;SDS011;3792;47.740;7.606;2023-03-11T02:45:47;1.20;;;1.10;;
7501;SDS011;3792;47.740;7.606;2023-03-11T02:48:15;1.50;;;1.40;;
7501;SDS011;3792;47.740;7.606;2023-03-11T02:50:43;1.40;;;1.30;;
7501;SDS011;3792;47.740;7.606;2023-03-11T02:53:12;1.20;;;1.10;;
7501;SDS011;3792;47.740;7.606;2023-03-11T02:55:39;1.20;;;1.20;;
7501;SDS011;3792;47.740;7.606;2023-03-11T02:58:06;1.03;;;1.03;;
7501;SDS011;3792;47.740;7.606;2023-03-11T03:00:34;1.40;;;1.30;;
7501;SDS011;3792;47.740;7.606;2023-03-11T03:03:02;2.13;;;1.27;;
7501;SDS011;3792;47.740;7.606;2023-03-11T03:05:29;1.57;;;1.30;;
7501;SDS011;3792;47.740;7.606;2023-03-11T03:07:56;1.40;;;1.30;;
7501;SDS011;3792;47.740;7.606;2023-03-11T03:10:23;2.13;;;1.40;;
7501;SDS011;3792;47.740;7.606;2023-03-11T03:12:50;1.30;;;1.10;;
7501;SDS011;3792;47.740;7.606;2023-03-11T03:15:18;2.53;;;1.50;;
7501;SDS011;3792;47.740;7.606;2023-03-11T03:17:46;1.67;;;1.47;;
7501;SDS011;3792;47.740;7.606;2023-03-11T03:20:15;1.70;;;1.60;;
7501;SDS011;3792;47.740;7.606;2023-03-11T03:22:46;2.73;;;1.57;;
7501;SDS011;3792;47.740;7.606;2023-03-11T03:25:14;1.60;;;1.23;;
7501;SDS011;3792;47.740;7.606;2023-03-11T03:27:41;1.33;;;1.23;;
7501;SDS011;3792;47.740;7.606;2023-03-11T03:30:08;4.63;;;1.60;;
7501;SDS011;3792;47.740;7.606;2023-03-11T03:32:36;1.90;;;1.53;;
7501;SDS011;3792;47.740;7.606;2023-03-11T03:35:06;2.00;;;1.47;;
7501;SDS011;3792;47.740;7.606;2023-03-11T03:37:34;3.27;;;1.53;;
7501;SDS011;3792;47.740;7.606;2023-03-11T03:40:03;4.07;;;1.50;;
7501;SDS011;3792;47.740;7.606;2023-03-11T03:42:32;2.93;;;1.43;;
7501;SDS011;3792;47.740;7.606;2023-03-11T03:45:00;1.77;;;1.40;;
7501;SDS011;3792;47.740;7.606;2023-03-11T03:47:27;2.53;;;1.40;;
7501;SDS011;3792;47.740;7.606;2023-03-11T03:49:54;2.63;;;1.50;;
7501;SDS011;3792;47.740;7.606;2023-03-11T03:52:22;3.23;;;1.80;;
7501;SDS011;3792;47.740;7.606;2023-03-11T03:54:49;1.57;;;1.43;;
7501;SDS011;3792;47.740;7.606;2023-03-11T03:57:17;1.53;;;1.17;;
7501;SDS011;3792;47.740;7.606;2023-03-11T03:59:44;1.60;;;1.20;;
7501;SDS011;3792;47.740;7.606;2023-03-11T04:02:11;3.63;;;1.83;;
7501;SDS011;3792;47.740;7.606;2023-03-11T04:04:38;1.73;;;1.50;;
7501;SDS011;3792;47.740;7.606;2023-03-11T04:07:05;1.40;;;1.30;;
7501;SDS011;3792;47.740;7.606;2023-03-11T04:09:34;3.43;;;1.40;;
7501;SDS011;3792;47.740;7.606;2023-03-11T04:12:04;1.60;;;1.50;;
7501;SDS011;3792;47.740;7.606;2023-03-11T04:14:31;2.40;;;1.80;;
7501;SDS011;3792;47.740;7.606;2023-03-11T04:16:58;2.03;;;1.63;;
7501;SDS011;3792;47.740;7.606;2023-03-11T04:19:25;1.97;;;1.60;;
7501;SDS011;3792;47.740;7.606;2023-03-11T04:21:52;2.77;;;1.70;;
7501;SDS011;3792;47.740;7.606;2023-03-11T04:24:19;2.07;;;1.23;;
7501;SDS011;3792;47.740;7.606;2023-03-11T04:26:48;2.27;;;1.70;;
7501;SDS011;3792;47.740;7.606;2023-03-11T04:29:15;1.70;;;1.60;;
7501;SDS011;3792;47.740;7.606;2023-03-11T04:31:42;3.67;;;1.73;;
7501;SDS011;3792;47.740;7.606;2023-03-11T04:34:09;2.20;;;1.83;;
7501;SDS011;3792;47.740;7.606;2023-03-11T04:36:37;2.37;;;1.87;;
7501;SDS011;3792;47.740;7.606;2023-03-11T04:39:04;1.57;;;1.47;;
7501;SDS011;3792;47.740;7.606;2023-03-11T04:41:31;1.90;;;1.70;;
7501;SDS011;3792;47.740;7.606;2023-03-11T04:44:00;2.17;;;2.03;;
7501;SDS011;3792;47.740;7.606;2023-03-11T04:46:27;2.50;;;2.03;;
7501;SDS011;3792;47.740;7.606;2023-03-11T04:48:54;3.50;;;2.10;;
7501;SDS011;3792;47.740;7.606;2023-03-11T04:51:21;2.37;;;1.70;;
7501;SDS011;3792;47.740;7.606;2023-03-11T04:53:48;2.87;;;1.70;;
7501;SDS011;3792;47.740;7.606;2023-03-11T04:56:15;3.50;;;1.67;;
7501;SDS011;3792;47.740;7.606;2023-03-11T04:58:42;3.07;;;2.00;;
7501;SDS011;3792;47.740;7.606;2023-03-11T05:01:10;2.73;;;1.90;;
7501;SDS011;3792;47.740;7.606;2023-03-11T05:03:37;2.43;;;1.63;;
7501;SDS011;3792;47.740;7.606;2023-03-11T05:06:04;2.07;;;1.80;;
7501;SDS011;3792;47.740;7.606;2023-03-11T05:08:31;1.80;;;1.70;;
7501;SDS011;3792;47.740;7.606;2023-03-11T05:10:58;1.97;;;1.67;;
7501;SDS011;3792;47.740;7.606;2023-03-11T05:13:25;1.30;;;1.27;;
7501;SDS011;3792;47.740;7.606;2023-03-11T05:15:52;1.40;;;1.00;;
7501;SDS011;3792;47.740;7.606;2023-03-11T05:18:21;3.13;;;1.27;;
7501;SDS011;3792;47.740;7.606;2023-03-11T05:20:48;1.53;;;1.43;;
7501;SDS011;3792;47.740;7.606;2023-03-11T05:23:15;1.30;;;1.20;;
7501;SDS011;3792;47.740;7.606;2023-03-11T05:25:42;2.37;;;1.30;;
7501;SDS011;3792;47.740;7.606;2023-03-11T05:28:09;1.17;;;1.17;;
7501;SDS011;3792;47.740;7.606;2023-03-11T05:30:36;2.00;;;1.80;;
7501;SDS011;3792;47.740;7.606;2023-03-11T05:33:03;2.77;;;1.60;;
7501;SDS011;3792;47.740;7.606;2023-03-11T05:35:32;2.07;;;1.20;;
7501;SDS011;3792;47.740;7.606;2023-03-11T05:37:59;0.90;;;0.90;;
7501;SDS011;3792;47.740;7.606;2023-03-11T05:40:26;1.13;;;1.10;;
7501;SDS011;3792;47.740;7.606;2023-03-11T05:42:53;2.53;;;1.90;;
7501;SDS011;3792;47.740;7.606;2023-03-11T05:45:20;3.07;;;2.13;;
7501;SDS011;3792;47.740;7.606;2023-03-11T05:47:47;1.70;;;1.60;;
7501;SDS011;3792;47.740;7.606;2023-03-11T05:50:14;1.90;;;1.77;;
7501;SDS011;3792;47.740;7.606;2023-03-11T05:52:42;1.70;;;1.43;;
7501;SDS011;3792;47.740;7.606;2023-03-11T05:55:09;2.77;;;1.67;;
7501;SDS011;3792;47.740;7.606;2023-03-11T05:57:37;2.63;;;1.70;;
7501;SDS011;3792;47.740;7.606;2023-03-11T06:00:05;3.00;;;1.80;;
7501;SDS011;3792;47.740;7.606;2023-03-11T06:02:36;2.37;;;2.10;;
7501;SDS011;3792;47.740;7.606;2023-03-11T06:05:04;5.03;;;2.20;;
7501;SDS011;3792;47.740;7.606;2023-03-11T06:07:32;4.60;;;2.93;;
7501;SDS011;3792;47.740;7.606;2023-03-11T06:10:01;1.50;;;1.40;;
7501;SDS011;3792;47.740;7.606;2023-03-11T06:12:29;4.13;;;2.10;;
7501;SDS011;3792;47.740;7.606;2023-03-11T06:14:56;1.83;;;1.73;;
7501;SDS011;3792;47.740;7.606;2023-03-11T06:17:23;4.20;;;2.60;;
7501;SDS011;3792;47.740;7.606;2023-03-11T06:19:51;3.13;;;2.80;;
7501;SDS011;3792;47.740;7.606;2023-03-11T06:22:18;2.90;;;2.37;;
7501;SDS011;3792;47.740;7.606;2023-03-11T06:24:45;4.77;;;2.33;;
7501;SDS011;3792;47.740;7.606;2023-03-11T06:27:14;2.57;;;2.33;;
7501;SDS011;3792;47.740;7.606;2023-03-11T06:29:41;4.37;;;2.60;;
7501;SDS011;3792;47.740;7.606;2023-03-11T06:32:08;4.00;;;2.70;;
7501;SDS011;3792;47.740;7.606;2023-03-11T06:34:35;3.83;;;2.57;;
7501;SDS011;3792;47.740;7.606;2023-03-11T06:37:02;2.73;;;2.50;;
7501;SDS011;3792;47.740;7.606;2023-03-11T06:39:30;2.53;;;2.30;;
7501;SDS011;3792;47.740;7.606;2023-03-11T06:41:56;3.80;;;2.03;;
7501;SDS011;3792;47.740;7.606;2023-03-11T06:44:25;2.40;;;2.20;;
7501;SDS011;3792;47.740;7.606;2023-03-11T06:46:52;2.93;;;2.20;;
7501;SDS011;3792;47.740;7.606;2023-03-11T06:49:19;4.30;;;2.80;;
7501;SDS011;3792;47.740;7.606;2023-03-11T06:51:46;3.67;;;2.83;;
7501;SDS011;3792;47.740;7.606;2023-03-11T06:54:13;4.27;;;3.53;;
7501;SDS011;3792;47.740;7.606;2023-03-11T06:56:40;7.13;;;6.53;;
7501;SDS011;3792;47.740;7.606;2023-03-11T06:59:07;4.40;;;4.00;;
7501;SDS011;3792;47.740;7.606;2023-03-11T07:01:36;6.23;;;4.17;;
7501;SDS011;3792;47.740;7.606;2023-03-11T07:04:03;8.37;;;3.13;;
7501;SDS011;3792;47.740;7.606;2023-03-11T07:06:30;4.00;;;3.10;;
7501;SDS011;3792;47.740;7.606;2023-03-11T07:08:57;5.50;;;3.80;;
7501;SDS011;3792;47.740;7.606;2023-03-11T07:11:25;5.33;;;3.20;;
7501;SDS011;3792;47.740;7.606;2023-03-11T07:13:53;6.60;;;3.40;;
7501;SDS011;3792;47.740;7.606;2023-03-11T07:16:21;16.83;;;11.20;;
7501;SDS011;3792;47.740;7.606;2023-03-11T07:18:52;8.47;;;5.97;;
7501;SDS011;3792;47.740;7.606;2023-03-11T07:21:21;7.07;;;4.43;;
7501;SDS011;3792;47.740;7.606;2023-03-11T07:23:50;7.03;;;5.10;;
7501;SDS011;3792;47.740;7.606;2023-03-11T07:26:18;6.27;;;4.50;;
7501;SDS011;3792;47.740;7.606;2023-03-11T07:28:45;9.13;;;5.60;;
7501;SDS011;3792;47.740;7.606;2023-03-11T07:31:13;8.53;;;6.37;;
7501;SDS011;3792;47.740;7.606;2023-03-11T07:33:42;7.23;;;5.53;;
7501;SDS011;3792;47.740;7.606;2023-03-11T07:36:12;8.50;;;6.73;;
7501;SDS011;3792;47.740;7.606;2023-03-11T07:38:40;9.17;;;5.97;;
7501;SDS011;3792;47.740;7.606;2023-03-11T07:41:08;7.53;;;4.23;;
7501;SDS011;3792;47.740;7.606;2023-03-11T07:43:36;5.47;;;4.50;;
7501;SDS011;3792;47.740;7.606;2023-03-11T07:46:04;7.53;;;5.67;;
7501;SDS011;3792;47.740;7.606;2023-03-11T07:48:33;6.50;;;4.87;;
7501;SDS011;3792;47.740;7.606;2023-03-11T07:51:01;6.53;;;5.00;;
7501;SDS011;3792;47.740;7.606;2023-03-11T07:53:31;11.23;;;5.83;;
7501;SDS011;3792;47.740;7.606;2023-03-11T07:55:59;11.00;;;5.93;;
7501;SDS011;3792;47.740;7.606;2023-03-11T07:58:27;14.77;;;8.83;;
7501;SDS011;3792;47.740;7.606;2023-03-11T08:00:54;5.53;;;4.50;;
7501;SDS011;3792;47.740;7.606;2023-03-11T08:03:21;5.07;;;3.73;;
7501;SDS011;3792;47.740;7.606;2023-03-11T08:05:49;4.67;;;3.93;;
7501;SDS011;3792;47.740;7.606;2023-03-11T08:08:17;3.80;;;3.33;;
7501;SDS011;3792;47.740;7.606;2023-03-11T08:10:46;5.57;;;4.47;;
7501;SDS011;3792;47.740;7.606;2023-03-11T08:13:13;6.10;;;4.23;;
7501;SDS011;3792;47.740;7.606;2023-03-11T08:15:40;3.17;;;2.83;;
7501;SDS011;3792;47.740;7.606;2023-03-11T08:18:07;4.37;;;3.30;;
7501;SDS011;3792;47.740;7.606;2023-03-11T08:20:36;4.07;;;2.47;;
7501;SDS011;3792;47.740;7.606;2023-03-11T08:23:03;7.27;;;4.97;;
7501;SDS011;3792;47.740;7.606;2023-03-11T08:25:30;6.37;;;3.90;;
7501;SDS011;3792;47.740;7.606;2023-03-11T08:27:58;4.87;;;3.60;;
7501;SDS011;3792;47.740;7.606;2023-03-11T08:30:25;5.10;;;4.10;;
7501;SDS011;3792;47.740;7.606;2023-03-11T08:32:52;7.83;;;4.83;;
7501;SDS011;3792;47.740;7.606;2023-03-11T08:35:20;5.33;;;4.60;;
7501;SDS011;3792;47.740;7.606;2023-03-11T08:37:47;7.40;;;4.90;;
7501;SDS011;3792;47.740;7.606;2023-03-11T08:40:14;4.23;;;3.83;;
7501;SDS011;3792;47.740;7.606;2023-03-11T08:42:41;4.73;;;4.10;;
7501;SDS011;3792;47.740;7.606;2023-03-11T08:45:10;4.77;;;4.23;;
7501;SDS011;3792;47.740;7.606;2023-03-11T08:47:37;7.57;;;4.67;;
7501;SDS011;3792;47.740;7.606;2023-03-11T08:50:05;4.00;;;3.00;;
7501;SDS011;3792;47.740;7.606;2023-03-11T08:52:34;3.93;;;3.00;;
7501;SDS011;3792;47.740;7.606;2023-03-11T08:55:01;4.87;;;4.20;;
7501;SDS011;3792;47.740;7.606;2023-03-11T08:57:29;12.70;;;7.43;;
7501;SDS011;3792;47.740;7.606;2023-03-11T08:59:56;5.83;;;4.50;;
7501;SDS011;3792;47.740;7.606;2023-03-11T09:02:25;7.03;;;3.50;;
7501;SDS011;3792;47.740;7.606;2023-03-11T09:04:52;4.37;;;2.70;;
7501;SDS011;3792;47.740;7.606;2023-03-11T09:07:19;3.70;;;3.40;;
7501;SDS011;3792;47.740;7.606;2023-03-11T09:09:46;4.50;;;3.00;;
7501;SDS011;3792;47.740;7.606;2023-03-11T09:12:14;3.53;;;2.87;;
7501;SDS011;3792;47.740;7.606;2023-03-11T09:14:41;3.37;;;3.00;;
7501;SDS011;3792;47.740;7.606;2023-03-11T09:17:08;5.07;;;2.50;;
7501;SDS011;3792;47.740;7.606;2023-03-11T09:19:39;3.30;;;3.00;;
7501;SDS011;3792;47.740;7.606;2023-03-11T09:22:07;7.33;;;3.20;;
7501;SDS011;3792;47.740;7.606;2023-03-11T09:24:35;4.43;;;2.50;;
7501;SDS011;3792;47.740;7.606;2023-03-11T09:27:03;4.97;;;3.20;;
7501;SDS011;3792;47.740;7.606;2023-03-11T09:29:30;6.57;;;2.77;;
7501;SDS011;3792;47.740;7.606;2023-03-11T09:31:58;3.97;;;2.80;;
7501;SDS011;3792;47.740;7.606;2023-03-11T09:34:26;6.13;;;3.67;;
7501;SDS011;3792;47.740;7.606;2023-03-11T09:36:55;4.43;;;2.97;;
7501;SDS011;3792;47.740;7.606;2023-03-11T09:39:22;4.97;;;3.57;;
7501;SDS011;3792;47.740;7.606;2023-03-11T09:41:51;4.97;;;2.80;;
7501;SDS011;3792;47.740;7.606;2023-03-11T09:44:21;2.77;;;2.10;;
7501;SDS011;3792;47.740;7.606;2023-03-11T09:49:53;3.17;;;2.00;;
7501;SDS011;3792;47.740;7.606;2023-03-11T09:52:34;5.27;;;2.10;;
7501;SDS011;3792;47.740;7.606;2023-03-11T09:55:11;2.63;;;1.47;;
7501;SDS011;3792;47.740;7.606;2023-03-11T09:57:56;3.53;;;1.70;;
7501;SDS011;3792;47.740;7.606;2023-03-11T10:00:26;2.07;;;1.93;;
7501;SDS011;3792;47.740;7.606;2023-03-11T10:02:53;2.77;;;1.97;;
7501;SDS011;3792;47.740;7.606;2023-03-11T10:05:22;2.37;;;1.77;;
7501;SDS011;3792;47.740;7.606;2023-03-11T10:07:54;4.33;;;1.77;;
7501;SDS011;3792;47.740;7.606;2023-03-11T10:10:26;4.87;;;2.30;;
7501;SDS011;3792;47.740;7.606;2023-03-11T10:13:03;2.30;;;2.10;;
7501;SDS011;3792;47.740;7.606;2023-03-11T10:15:38;3.07;;;1.83;;
7501;SDS011;3792;47.740;7.606;2023-03-11T10:18:19;4.83;;;1.97;;
7501;SDS011;3792;47.740;7.606;2023-03-11T10:20:55;1.93;;;1.70;;
7501;SDS011;3792;47.740;7.606;2023-03-11T10:23:29;4.60;;;2.07;;
7501;SDS011;3792;47.740;7.606;2023-03-11T10:26:08;2.17;;;1.70;;
7501;SDS011;3792;47.740;7.606;2023-03-11T10:28:40;3.40;;;1.53;;
7501;SDS011;3792;47.740;7.606;2023-03-11T10:31:15;2.73;;;1.87;;
7501;SDS011;3792;47.740;7.606;2023-03-11T10:33:51;3.30;;;1.57;;
7501;SDS011;3792;47.740;7.606;2023-03-11T10:36:22;1.67;;;1.53;;
7501;SDS011;3792;47.740;7.606;2023-03-11T10:38:53;4.97;;;1.63;;
7501;SDS011;3792;47.740;7.606;2023-03-11T10:41:23;2.20;;;1.60;;
7501;SDS011;3792;47.740;7.606;2023-03-11T10:43:56;3.53;;;1.80;;
7501;SDS011;3792;47.740;7.606;2023-03-11T10:46:28;3.77;;;1.77;;
7501;SDS011;3792;47.740;7.606;2023-03-11T10:48:55;3.37;;;1.43;;
7501;SDS011;3792;47.740;7.606;2023-03-11T10:51:23;2.03;;;1.33;;
7501;SDS011;3792;47.740;7.606;2023-03-11T10:53:55;2.97;;;1.47;;
7501;SDS011;3792;47.740;7.606;2023-03-11T10:56:24;4.00;;;1.73;;
7501;SDS011;3792;47.740;7.606;2023-03-11T10:58:53;2.17;;;1.73;;
7501;SDS011;3792;47.740;7.606;2023-03-11T11:01:21;4.03;;;1.80;;
7501;SDS011;3792;47.740;7.606;2023-03-11T11:03:50;2.90;;;1.70;;
7501;SDS011;3792;47.740;7.606;2023-03-11T11:06:21;3.90;;;1.43;;
7501;SDS011;3792;47.740;7.606;2023-03-11T11:09:12;4.20;;;1.93;;
7501;SDS011;3792;47.740;7.606;2023-03-11T11:11:42;3.30;;;1.70;;
7501;SDS011;3792;47.740;7.606;2023-03-11T11:14:40;3.70;;;1.60;;
7501;SDS011;3792;47.740;7.606;2023-03-11T11:17:13;3.10;;;2.03;;
7501;SDS011;3792;47.740;7.606;2023-03-11T11:19:46;4.07;;;2.03;;
7501;SDS011;3792;47.740;7.606;2023-03-11T11:22:14;3.57;;;1.70;;
7501;SDS011;3792;47.740;7.606;2023-03-11T11:24:44;5.20;;;1.60;;
7501;SDS011;3792;47.740;7.606;2023-03-11T11:27:15;2.90;;;1.73;;
7501;SDS011;3792;47.740;7.606;2023-03-11T11:29:44;2.53;;;2.33;;
7501;SDS011;3792;47.740;7.606;2023-03-11T11:32:16;2.40;;;1.60;;
7501;SDS011;3792;47.740;7.606;2023-03-11T11:34:52;1.67;;;1.50;;
7501;SDS011;3792;47.740;7.606;2023-03-11T11:37:22;2.63;;;1.60;;
7501;SDS011;3792;47.740;7.606;2023-03-11T11:39:58;4.30;;;1.90;;
7501;SDS011;3792;47.740;7.606;2023-03-11T11:42:34;2.20;;;1.60;;
7501;SDS011;3792;47.740;7.606;2023-03-11T11:45:03;2.53;;;1.67;;
7501;SDS011;3792;47.740;7.606;2023-03-11T11:47:38;4.57;;;2.30;;
7501;SDS011;3792;47.740;7.606;2023-03-11T11:50:12;3.63;;;2.50;;
7501;SDS011;3792;47.740;7.606;2023-03-11T11:52:43;3.50;;;1.90;;
7501;SDS011;3792;47.740;7.606;2023-03-11T11:55:17;3.10;;;1.70;;
7501;SDS011;3792;47.740;7.606;2023-03-11T11:57:46;2.67;;;1.70;;
7501;SDS011;3792;47.740;7.606;2023-03-11T12:00:16;4.97;;;2.57;;
7501;SDS011;3792;47.740;7.606;2023-03-11T12:02:51;4.07;;;1.90;;
7501;SDS011;3792;47.740;7.606;2023-03-11T12:05:32;3.43;;;1.83;;
7501;SDS011;3792;47.740;7.606;2023-03-11T12:08:08;4.13;;;1.90;;
7501;SDS011;3792;47.740;7.606;2023-03-11T12:10:43;3.07;;;1.83;;
7501;SDS011;3792;47.740;7.606;2023-03-11T12:13:21;4.37;;;2.10;;
7501;SDS011;3792;47.740;7.606;2023-03-11T12:15:58;3.57;;;2.20;;
7501;SDS011;3792;47.740;7.606;2023-03-11T12:18:29;2.67;;;1.90;;
7501;SDS011;3792;47.740;7.606;2023-03-11T12:21:00;2.33;;;2.00;;
7501;SDS011;3792;47.740;7.606;2023-03-11T12:23:40;3.03;;;1.83;;
7501;SDS011;3792;47.740;7.606;2023-03-11T12:26:20;2.73;;;1.90;;
7501;SDS011;3792;47.740;7.606;2023-03-11T12:28:52;3.57;;;2.00;;
7501;SDS011;3792;47.740;7.606;2023-03-11T12:31:23;4.10;;;2.27;;
7501;SDS011;3792;47.740;7.606;2023-03-11T12:33:54;2.93;;;1.90;;
7501;SDS011;3792;47.740;7.606;2023-03-11T12:36:24;3.13;;;2.17;;
7501;SDS011;3792;47.740;7.606;2023-03-11T12:38:56;2.90;;;1.93;;
7501;SDS011;3792;47.740;7.606;2023-03-11T12:41:30;4.30;;;2.20;;
7501;SDS011;3792;47.740;7.606;2023-03-11T12:44:04;9.00;;;4.80;;
7501;SDS011;3792;47.740;7.606;2023-03-11T12:49:46;7.90;;;3.90;;
7501;SDS011;3792;47.740;7.606;2023-03-11T12:52:26;3.97;;;3.03;;
7501;SDS011;3792;47.740;7.606;2023-03-11T12:57:52;6.33;;;2.33;;
7501;SDS011;3792;47.740;7.606;2023-03-11T13:00:27;2.93;;;1.93;;
7501;SDS011;3792;47.740;7.606;2023-03-11T13:03:13;4.97;;;2.70;;
7501;SDS011;3792;47.740;7.606;2023-03-11T13:05:56;5.07;;;2.83;;
7501;SDS011;3792;47.740;7.606;2023-03-11T13:08:30;4.33;;;2.30;;
7501;SDS011;3792;47.740;7.606;2023-03-11T13:11:09;3.93;;;3.13;;
7501;SDS011;3792;47.740;7.606;2023-03-11T13:14:02;2.67;;;1.87;;
7501;SDS011;3792;47.740;7.606;2023-03-11T13:16:38;4.20;;;2.50;;
7501;SDS011;3792;47.740;7.606;2023-03-11T13:22:08;5.23;;;2.73;;
7501;SDS011;3792;47.740;7.606;2023-03-11T13:25:23;5.10;;;2.10;;
7501;SDS011;3792;47.740;7.606;2023-03-11T13:27:57;3.17;;;2.10;;
7501;SDS011;3792;47.740;7.606;2023-03-11T13:30:41;4.33;;;2.50;;
7501;SDS011;3792;47.740;7.606;2023-03-11T13:33:19;3.30;;;2.03;;
7501;SDS011;3792;47.740;7.606;2023-03-11T13:35:55;3.40;;;2.07;;
7501;SDS011;3792;47.740;7.606;2023-03-11T13:38:37;2.50;;;2.30;;
7501;SDS011;3792;47.740;7.606;2023-03-11T13:41:14;3.80;;;2.10;;
7501;SDS011;3792;47.740;7.606;2023-03-11T13:43:44;3.60;;;2.57;;
7501;SDS011;3792;47.740;7.606;2023-03-11T13:46:21;4.90;;;2.43;;
7501;SDS011;3792;47.740;7.606;2023-03-11T13:48:55;2.70;;;2.07;;
7501;SDS011;3792;47.740;7.606;2023-03-11T13:51:31;4.33;;;2.60;;
7501;SDS011;3792;47.740;7.606;2023-03-11T13:54:04;3.53;;;2.33;;
7501;SDS011;3792;47.740;7.606;2023-03-11T13:56:42;2.70;;;2.20;;
7501;SDS011;3792;47.740;7.606;2023-03-11T13:59:16;2.30;;;1.90;;
7501;SDS011;3792;47.740;7.606;2023-03-11T14:01:49;4.57;;;3.40;;
7501;SDS011;3792;47.740;7.606;2023-03-11T14:04:17;3.17;;;2.87;;
7501;SDS011;3792;47.740;7.606;2023-03-11T14:06:49;3.57;;;2.80;;
7501;SDS011;3792;47.740;7.606;2023-03-11T14:09:18;4.97;;;2.73;;
7501;SDS011;3792;47.740;7.606;2023-03-11T14:11:45;2.67;;;2.13;;
7501;SDS011;3792;47.740;7.606;2023-03-11T14:17:11;2.83;;;2.30;;
7501;SDS011;3792;47.740;7.606;2023-03-11T14:19:40;4.60;;;2.10;;
7501;SDS011;3792;47.740;7.606;2023-03-11T14:22:08;3.03;;;1.80;;
7501;SDS011;3792;47.740;7.606;2023-03-11T14:24:35;3.50;;;2.30;;
7501;SDS011;3792;47.740;7.606;2023-03-11T14:27:06;3.13;;;2.50;;
7501;SDS011;3792;47.740;7.606;2023-03-11T14:29:35;6.10;;;2.40;;
7501;SDS011;3792;47.740;7.606;2023-03-11T14:32:22;2.80;;;2.30;;
7501;SDS011;3792;47.740;7.606;2023-03-11T14:34:51;3.03;;;1.93;;
7501;SDS011;3792;47.740;7.606;2023-03-11T14:37:26;2.53;;;1.80;;
7501;SDS011;3792;47.740;7.606;2023-03-11T14:39:57;3.53;;;2.27;;
7501;SDS011;3792;47.740;7.606;2023-03-11T14:42:25;2.70;;;2.23;;
7501;SDS011;3792;47.740;7.606;2023-03-11T14:44:55;2.07;;;1.80;;
7501;SDS011;3792;47.740;7.606;2023-03-11T14:47:32;5.27;;;2.83;;
7501;SDS011;3792;47.740;7.606;2023-03-11T14:50:05;3.97;;;1.90;;
7501;SDS011;3792;47.740;7.606;2023-03-11T14:52:39;2.63;;;2.30;;
7501;SDS011;3792;47.740;7.606;2023-03-11T14:55:11;2.33;;;2.10;;
7501;SDS011;3792;47.740;7.606;2023-03-11T14:57:40;2.03;;;1.80;;
7501;SDS011;3792;47.740;7.606;2023-03-11T15:00:12;5.53;;;2.83;;
7501;SDS011;3792;47.740;7.606;2023-03-11T15:02:47;4.43;;;2.43;;
7501;SDS011;3792;47.740;7.606;2023-03-11T15:05:22;2.20;;;2.00;;
7501;SDS011;3792;47.740;7.606;2023-03-11T15:07:56;3.13;;;1.97;;
7501;SDS011;3792;47.740;7.606;2023-03-11T15:10:26;2.57;;;2.13;;
7501;SDS011;3792;47.740;7.606;2023-03-11T15:13:02;2.63;;;1.87;;
7501;SDS011;3792;47.740;7.606;2023-03-11T15:15:32;2.53;;;1.80;;
7501;SDS011;3792;47.740;7.606;2023-03-11T15:18:00;2.33;;;2.13;;
7501;SDS011;3792;47.740;7.606;2023-03-11T15:20:29;3.10;;;1.97;;
7501;SDS011;3792;47.740;7.606;2023-03-11T15:22:58;2.07;;;1.87;;
7501;SDS011;3792;47.740;7.606;2023-03-11T15:25:27;2.27;;;2.07;;
7501;SDS011;3792;47.740;7.606;2023-03-11T15:27:57;4.47;;;2.07;;
7501;SDS011;3792;47.740;7.606;2023-03-11T15:30:25;2.67;;;2.10;;
7501;SDS011;3792;47.740;7.606;2023-03-11T15:32:54;2.67;;;1.80;;
7501;SDS011;3792;47.740;7.606;2023-03-11T15:35:23;2.83;;;1.80;;
7501;SDS011;3792;47.740;7.606;2023-03-11T15:40:49;2.33;;;1.67;;
7501;SDS011;3792;47.740;7.606;2023-03-11T15:43:19;2.17;;;1.83;;
7501;SDS011;3792;47.740;7.606;2023-03-11T15:45:49;3.67;;;1.53;;
7501;SDS011;3792;47.740;7.606;2023-03-11T15:48:18;3.07;;;1.67;;
7501;SDS011;3792;47.740;7.606;2023-03-11T15:50:50;4.27;;;1.83;;
7501;SDS011;3792;47.740;7.606;2023-03-11T15:53:18;2.03;;;1.77;;